Hovedside
METAR-TAF:

METAR-TAF

Lufthavner :

Weno, Mikronesia

breddegrad: 07-28N, lengdegrad: 151-51E, høyde over havet: 3 m

Gjeldene værobservasjon

Denne rapporten ble laget for 14 minutter siden, klokken 06:50 UTC
Vind 5 kt fra skiftende retning
Temperatur 30°C
Luftfuktighet 84%
Trykk
Sikt: 24.1 km
Få skyer i en høyde av 1200 ft, Tårnskyer (cumulus).
Spredte skyer i en høyde av 12000 ft
Overskyet i en høyde av 28000 ft

METAR: PTKK 250650Z VRB05KT 15SM FEW012TCU SCT120 OVC280 30/27 A2973RMK TCU S AND W SLP069 T03020267

Tid: 17:04 (07:04 UTC)

Varsel

Denne rapporten ble laget for 1 time og 37 minutter siden, klokken 05:27 UTC
Varsel gyldig fra 25. klokken 06 UTC til 26. klokken 06 UTC
Vind 5 kt fra skiftende retning
Sikt: 10 km
Spredte skyer i en høyde av 1200 ft
Spredte skyer i en høyde av 12000 ft
regnbyger i nærheten

TAF: PTKK 250527Z 2506/2606 VRB05KT P6SM VCSH SCT012 SCT120

Værobservasjoner og værvarsel for over 4000 flyplasser (METAR- og TAF-rapporter).

Tilgjengelige stasjoner er representert av de røde og gule prikkene på kartet.

Hold musepekeren over prikken for å se navnet på stasjonen.

Klikk så for å se værobservasjoner og -varsler.

For å forandre kartet kan du klikke på den grønne knappen med svart kryss for å zoome inn, på den grønne knappen med strek for å zoome ut, eller på de grønne pilene for å se tilstøtende kart.


METAR-TAF: